createdAt,value
2023-01-28T00:03:50.655Z,10.68
2023-01-28T00:06:19.067Z,8.90
2023-01-28T00:08:46.255Z,8.32
2023-01-28T00:11:13.634Z,10.23
2023-01-28T00:13:40.820Z,9.40
2023-01-28T00:16:14.749Z,9.52
2023-01-28T00:18:43.545Z,9.52
2023-01-28T00:21:10.915Z,8.97
2023-01-28T00:23:39.202Z,8.05
2023-01-28T00:26:08.103Z,8.55
2023-01-28T00:28:35.700Z,9.50
2023-01-28T00:31:04.959Z,7.72
2023-01-28T00:33:36.267Z,9.10
2023-01-28T00:36:09.499Z,7.82
2023-01-28T00:38:39.634Z,8.77
2023-01-28T00:41:07.043Z,8.93
2023-01-28T00:43:34.516Z,9.05
2023-01-28T00:46:06.702Z,8.95
2023-01-28T00:48:35.566Z,8.32
2023-01-28T00:51:06.482Z,9.38
2023-01-28T00:53:41.400Z,8.57
2023-01-28T00:56:12.000Z,10.80
2023-01-28T00:58:41.801Z,8.80
2023-01-28T01:01:10.488Z,10.63
2023-01-28T01:03:40.108Z,11.48
2023-01-28T01:06:07.802Z,12.75
2023-01-28T01:08:35.581Z,12.13
2023-01-28T01:11:03.911Z,13.48
2023-01-28T01:13:32.746Z,16.70
2023-01-28T01:16:00.316Z,15.02
2023-01-28T01:18:27.571Z,18.67
2023-01-28T01:20:58.951Z,15.10
2023-01-28T01:23:26.205Z,15.55
2023-01-28T01:25:54.793Z,17.50
2023-01-28T01:28:23.522Z,18.65
2023-01-28T01:30:54.055Z,16.15
2023-01-28T01:33:21.267Z,17.23
2023-01-28T01:35:51.587Z,17.77
2023-01-28T01:38:19.878Z,16.58
2023-01-28T01:40:49.922Z,14.73
2023-01-28T01:43:17.191Z,16.52
2023-01-28T01:45:44.748Z,14.48
2023-01-28T01:48:12.271Z,14.75
2023-01-28T01:50:39.505Z,14.43
2023-01-28T01:53:08.498Z,13.48
2023-01-28T01:55:38.148Z,15.15
2023-01-28T01:58:05.708Z,12.43
2023-01-28T02:00:33.946Z,13.27
2023-01-28T02:03:01.293Z,11.82
2023-01-28T02:05:28.915Z,12.38
2023-01-28T02:08:16.192Z,13.35
2023-01-28T02:10:47.599Z,9.93
2023-01-28T02:13:14.837Z,10.85
2023-01-28T02:15:42.403Z,12.60
2023-01-28T02:18:11.131Z,11.75
2023-01-28T02:20:40.732Z,10.30
2023-01-28T02:23:11.042Z,9.70
2023-01-28T02:25:43.514Z,11.00
2023-01-28T02:28:11.035Z,9.80
2023-01-28T02:30:41.499Z,12.13
2023-01-28T02:33:09.013Z,11.52
2023-01-28T02:35:36.299Z,11.20
2023-01-28T02:38:03.913Z,11.27
2023-01-28T02:40:32.307Z,11.43
2023-01-28T02:43:01.994Z,9.95
2023-01-28T02:45:56.912Z,11.07
2023-01-28T02:48:27.481Z,8.38
2023-01-28T02:50:54.657Z,8.88
2023-01-28T02:53:41.318Z,10.38
2023-01-28T02:56:11.136Z,10.32
2023-01-28T02:58:43.431Z,10.38
2023-01-28T03:01:18.485Z,9.43
2023-01-28T03:03:48.842Z,8.65
2023-01-28T03:06:16.740Z,8.43
2023-01-28T03:09:05.258Z,9.32
2023-01-28T03:12:04.703Z,9.57
2023-01-28T03:14:53.563Z,8.95
2023-01-28T03:17:39.872Z,8.80
2023-01-28T03:20:28.382Z,8.45
2023-01-28T03:23:18.227Z,8.48
2023-01-28T03:26:07.630Z,7.65
2023-01-28T03:31:50.044Z,7.07
2023-01-28T03:34:43.736Z,5.60
2023-01-28T03:37:18.556Z,7.32
2023-01-28T03:40:02.637Z,6.70
2023-01-28T03:42:31.631Z,8.18
2023-01-28T03:45:19.000Z,7.03
2023-01-28T03:47:54.443Z,7.47
2023-01-28T03:50:22.854Z,6.40
2023-01-28T03:53:19.149Z,5.85
2023-01-28T03:58:52.276Z,5.95
2023-01-28T04:01:20.159Z,5.30
2023-01-28T04:03:54.309Z,4.57
2023-01-28T04:06:33.124Z,4.90
2023-01-28T04:09:27.560Z,4.13
2023-01-28T04:12:18.847Z,3.88
2023-01-28T04:14:51.376Z,3.97
2023-01-28T04:17:29.962Z,2.88
2023-01-28T04:20:06.123Z,3.03
2023-01-28T04:25:28.131Z,3.03
2023-01-28T04:27:56.186Z,2.67
2023-01-28T04:30:27.142Z,2.85
2023-01-28T04:33:31.878Z,3.03
2023-01-28T04:36:17.035Z,3.50
2023-01-28T04:39:09.545Z,3.53
2023-01-28T04:42:02.497Z,3.10
2023-01-28T04:44:58.632Z,2.90
2023-01-28T04:47:48.897Z,3.05
2023-01-28T04:50:36.638Z,2.40
2023-01-28T04:53:31.483Z,2.35
2023-01-28T04:56:07.368Z,2.78
2023-01-28T04:58:45.464Z,2.80
2023-01-28T05:01:44.185Z,2.92
2023-01-28T05:04:12.335Z,1.95
2023-01-28T05:06:43.055Z,3.20
2023-01-28T05:12:04.682Z,2.22
2023-01-28T05:14:33.700Z,2.47
2023-01-28T05:17:06.979Z,2.47
2023-01-28T05:19:35.952Z,2.20
2023-01-28T05:22:04.087Z,2.17
2023-01-28T05:24:58.463Z,1.85
2023-01-28T05:27:27.198Z,3.85
2023-01-28T05:29:54.832Z,2.53
2023-01-28T05:32:22.172Z,2.38
2023-01-28T05:34:49.749Z,2.25
2023-01-28T05:37:17.041Z,2.33
2023-01-28T05:39:45.346Z,2.72
2023-01-28T05:42:12.620Z,3.00
2023-01-28T05:44:45.211Z,2.60
2023-01-28T05:47:18.964Z,2.33
2023-01-28T05:49:53.056Z,3.22
2023-01-28T05:55:07.899Z,3.08
2023-01-28T05:57:35.743Z,2.90
2023-01-28T06:00:03.365Z,3.47
2023-01-28T06:02:41.836Z,3.40
2023-01-28T06:05:11.121Z,3.80
2023-01-28T06:07:38.497Z,3.05
2023-01-28T06:10:07.238Z,3.20
2023-01-28T06:12:34.483Z,3.55
2023-01-28T06:15:21.636Z,3.60
2023-01-28T06:18:03.516Z,4.35
2023-01-28T06:20:33.972Z,3.10
2023-01-28T06:23:01.699Z,3.90
2023-01-28T06:25:29.730Z,3.83
2023-01-28T06:28:01.115Z,4.15
2023-01-28T06:30:28.438Z,3.63
2023-01-28T06:32:55.743Z,3.85
2023-01-28T06:35:23.091Z,3.53
2023-01-28T06:37:50.320Z,3.95
2023-01-28T06:40:18.049Z,4.70
2023-01-28T06:42:45.341Z,4.32
2023-01-28T06:45:12.623Z,5.00
2023-01-28T06:47:39.980Z,4.50
2023-01-28T06:50:07.250Z,4.25
2023-01-28T06:52:34.408Z,3.95
2023-01-28T06:55:01.765Z,4.72
2023-01-28T06:57:28.961Z,4.28
2023-01-28T06:59:56.213Z,3.83
2023-01-28T07:02:24.875Z,4.63
2023-01-28T07:04:56.168Z,4.88
2023-01-28T07:07:23.462Z,5.03
2023-01-28T07:09:50.645Z,4.43
2023-01-28T07:12:18.028Z,5.30
2023-01-28T07:14:45.221Z,5.07
2023-01-28T07:17:12.551Z,4.53
2023-01-28T07:19:39.716Z,6.93
2023-01-28T07:22:07.008Z,5.03
2023-01-28T07:24:34.940Z,4.57
2023-01-28T07:27:02.313Z,4.60
2023-01-28T07:29:29.548Z,4.53
2023-01-28T07:31:56.840Z,5.53
2023-01-28T07:34:24.977Z,4.97
2023-01-28T07:36:52.207Z,4.93
2023-01-28T07:39:19.406Z,6.00
2023-01-28T07:41:47.433Z,4.35
2023-01-28T07:44:31.457Z,4.85
2023-01-28T07:46:58.761Z,4.95
2023-01-28T07:49:25.932Z,4.45
2023-01-28T07:51:53.189Z,4.38
2023-01-28T07:54:20.460Z,5.07
2023-01-28T07:56:47.892Z,4.03
2023-01-28T07:59:15.177Z,4.13
2023-01-28T08:01:42.640Z,4.25
2023-01-28T08:04:09.963Z,4.53
2023-01-28T08:06:37.790Z,5.60
2023-01-28T08:09:06.182Z,4.15
2023-01-28T08:11:33.432Z,5.15
2023-01-28T08:14:00.622Z,4.75
2023-01-28T08:16:28.774Z,4.85
2023-01-28T08:18:56.281Z,5.05
2023-01-28T08:21:23.541Z,5.00
2023-01-28T08:23:50.719Z,4.57
2023-01-28T08:26:17.940Z,4.97
2023-01-28T08:28:45.140Z,4.63
2023-01-28T08:31:12.465Z,4.47
2023-01-28T08:33:39.696Z,4.35
2023-01-28T08:36:07.044Z,4.20
2023-01-28T08:38:34.458Z,4.43
2023-01-28T08:41:01.606Z,4.05
2023-01-28T08:43:28.848Z,4.22
2023-01-28T08:45:56.039Z,4.43
2023-01-28T08:48:23.352Z,3.80
2023-01-28T08:50:50.893Z,3.65
2023-01-28T08:53:18.245Z,4.55
2023-01-28T08:55:45.426Z,3.80
2023-01-28T08:58:12.742Z,6.28
2023-01-28T09:00:39.951Z,3.58
2023-01-28T09:03:07.224Z,4.22
2023-01-28T09:05:34.457Z,3.60
2023-01-28T09:08:02.258Z,4.50
2023-01-28T09:10:29.425Z,3.70
2023-01-28T09:12:56.708Z,4.63
2023-01-28T09:15:24.022Z,5.32
2023-01-28T09:17:51.279Z,6.05
2023-01-28T09:20:18.502Z,7.32
2023-01-28T09:22:45.778Z,7.22
2023-01-28T09:25:12.978Z,7.43
2023-01-28T09:27:40.189Z,8.85
2023-01-28T09:30:07.478Z,9.40
2023-01-28T09:32:34.676Z,10.50
2023-01-28T09:35:02.074Z,9.60
2023-01-28T09:37:29.307Z,9.13
2023-01-28T09:39:57.082Z,8.98
2023-01-28T09:42:24.362Z,8.98
2023-01-28T09:44:54.119Z,9.73
2023-01-28T09:47:21.358Z,9.00
2023-01-28T09:49:48.573Z,10.27
2023-01-28T09:52:15.784Z,8.98
2023-01-28T09:54:43.120Z,9.43
2023-01-28T09:57:10.525Z,11.40
2023-01-28T09:59:37.739Z,8.50
2023-01-28T10:02:04.983Z,10.55
2023-01-28T10:04:32.185Z,7.32
2023-01-28T10:07:00.253Z,6.88
2023-01-28T10:09:27.453Z,6.93
2023-01-28T10:11:54.693Z,7.53
2023-01-28T10:14:21.995Z,8.18
2023-01-28T10:16:49.470Z,7.38
2023-01-28T10:19:17.184Z,6.75
2023-01-28T10:21:44.496Z,6.35
2023-01-28T10:24:11.816Z,7.28
2023-01-28T10:26:39.073Z,7.22
2023-01-28T10:29:06.381Z,8.38
2023-01-28T10:31:33.705Z,7.20
2023-01-28T10:34:00.939Z,7.20
2023-01-28T10:36:28.295Z,7.60
2023-01-28T10:38:55.558Z,7.38
2023-01-28T10:41:22.799Z,7.30
2023-01-28T10:43:50.188Z,7.00
2023-01-28T10:46:17.572Z,7.32
2023-01-28T10:48:44.778Z,6.85
2023-01-28T10:51:12.100Z,7.10
2023-01-28T10:53:39.371Z,7.45
2023-01-28T10:56:06.580Z,7.75
2023-01-28T10:58:33.926Z,7.85
2023-01-28T11:01:01.221Z,7.20
2023-01-28T11:03:29.191Z,7.22
2023-01-28T11:05:56.414Z,7.30
2023-01-28T11:08:24.498Z,6.82
2023-01-28T11:10:51.717Z,6.18
2023-01-28T11:13:19.008Z,8.00
2023-01-28T11:15:46.254Z,10.63
2023-01-28T11:18:13.442Z,7.03
2023-01-28T11:20:40.767Z,6.53
2023-01-28T11:23:07.976Z,6.80
2023-01-28T11:25:35.285Z,10.70
2023-01-28T11:28:02.551Z,6.10
2023-01-28T11:30:29.752Z,6.60
2023-01-28T11:32:57.082Z,6.05
2023-01-28T11:35:24.326Z,6.28
2023-01-28T11:37:51.547Z,6.00
2023-01-28T11:40:21.445Z,7.75
2023-01-28T11:42:49.543Z,8.10
2023-01-28T11:45:16.703Z,7.50
2023-01-28T11:47:43.980Z,7.70
2023-01-28T11:50:11.386Z,7.35
2023-01-28T11:53:02.586Z,6.78
2023-01-28T11:55:25.864Z,5.55
2023-01-28T11:57:53.274Z,7.32
2023-01-28T12:00:23.960Z,7.13
2023-01-28T12:02:51.506Z,7.38
2023-01-28T12:05:18.700Z,9.75
2023-01-28T12:07:45.936Z,8.10
2023-01-28T12:10:13.351Z,11.05
2023-01-28T12:12:40.744Z,10.98
2023-01-28T12:15:08.063Z,11.88
2023-01-28T12:17:35.311Z,12.73
2023-01-28T12:22:47.362Z,12.60
2023-01-28T12:25:17.567Z,13.25
2023-01-28T12:27:44.957Z,11.77
2023-01-28T12:30:12.304Z,14.82
2023-01-28T12:32:40.358Z,12.85
2023-01-28T12:35:08.199Z,12.90
2023-01-28T12:37:35.423Z,11.52
2023-01-28T12:40:02.845Z,10.65
2023-01-28T12:42:30.459Z,12.15
2023-01-28T12:47:42.512Z,10.38
2023-01-28T12:50:09.712Z,11.73
2023-01-28T12:56:05.562Z,10.05
2023-01-28T12:58:32.728Z,9.40
2023-01-28T13:00:59.909Z,10.85
2023-01-28T13:03:27.149Z,9.60
2023-01-28T13:05:54.337Z,12.93
2023-01-28T13:08:21.566Z,10.95
2023-01-28T13:13:33.584Z,9.07
2023-01-28T13:24:17.894Z,8.32
2023-01-28T13:26:45.081Z,8.63
2023-01-28T13:29:12.274Z,8.98
2023-01-28T13:31:39.466Z,8.50
2023-01-28T13:34:06.872Z,10.02
2023-01-28T13:36:34.043Z,9.43
2023-01-28T13:39:01.280Z,9.00
2023-01-28T13:41:28.491Z,10.38
2023-01-28T13:43:58.255Z,10.80
2023-01-28T13:46:25.420Z,9.48
2023-01-28T13:48:54.564Z,9.35
2023-01-28T13:51:21.764Z,9.82
2023-01-28T13:53:48.993Z,8.98
2023-01-28T13:56:16.172Z,11.90
2023-01-28T13:58:43.426Z,9.35
2023-01-28T14:01:10.731Z,8.85
2023-01-28T14:03:38.183Z,9.48
2023-01-28T14:06:05.378Z,9.75
2023-01-28T14:08:32.877Z,11.43
2023-01-28T14:11:00.098Z,9.73
2023-01-28T14:13:27.634Z,10.57
2023-01-28T14:15:54.857Z,10.93
2023-01-28T14:18:22.173Z,10.13
2023-01-28T14:20:49.686Z,10.15
2023-01-28T14:23:17.084Z,11.18
2023-01-28T14:25:44.292Z,11.00
2023-01-28T14:28:11.525Z,9.20
2023-01-28T14:30:38.885Z,10.07
2023-01-28T14:33:06.145Z,10.40
2023-01-28T14:35:33.333Z,10.23
2023-01-28T14:38:00.602Z,9.25
2023-01-28T14:40:27.871Z,11.00
2023-01-28T14:42:55.239Z,10.27
2023-01-28T14:45:22.450Z,10.45
2023-01-28T14:47:49.692Z,10.77
2023-01-28T14:50:17.112Z,11.05
2023-01-28T14:52:44.661Z,11.40
2023-01-28T14:55:11.863Z,12.52
2023-01-28T14:57:39.087Z,11.15
2023-01-28T15:00:08.190Z,10.82
2023-01-28T15:02:35.485Z,12.43
2023-01-28T15:05:02.676Z,11.32
2023-01-28T15:07:30.045Z,10.00
2023-01-28T15:09:57.227Z,10.23
2023-01-28T15:12:24.518Z,10.02
2023-01-28T15:14:51.733Z,10.95
2023-01-28T15:17:19.686Z,11.00
2023-01-28T15:19:46.890Z,9.02
2023-01-28T15:22:14.147Z,8.98
2023-01-28T15:24:44.536Z,8.82
2023-01-28T15:27:11.748Z,9.68
2023-01-28T15:29:38.930Z,9.52
2023-01-28T15:32:07.452Z,9.40
2023-01-28T15:34:34.587Z,9.95
2023-01-28T15:37:01.822Z,10.30
2023-01-28T15:39:29.020Z,9.27
2023-01-28T15:41:56.365Z,9.38
2023-01-28T15:44:23.628Z,10.48
2023-01-28T15:46:53.939Z,10.63
2023-01-28T15:49:21.162Z,8.93
2023-01-28T15:51:48.363Z,8.45
2023-01-28T15:54:15.574Z,10.00
2023-01-28T15:56:42.893Z,11.13
2023-01-28T15:59:10.154Z,10.05
2023-01-28T16:01:37.317Z,9.27
2023-01-28T16:04:04.927Z,9.60
2023-01-28T16:06:32.251Z,10.50
2023-01-28T16:08:59.608Z,10.30
2023-01-28T16:11:26.797Z,10.57
2023-01-28T16:13:54.124Z,10.80
2023-01-28T16:16:21.322Z,11.40
2023-01-28T16:18:50.536Z,10.88
2023-01-28T16:21:17.766Z,10.85
2023-01-28T16:23:45.009Z,10.35
2023-01-28T16:26:12.352Z,11.23
2023-01-28T16:28:39.620Z,10.40
2023-01-28T16:31:06.903Z,10.98
2023-01-28T16:33:34.202Z,10.25
2023-01-28T16:36:08.999Z,11.45
2023-01-28T16:38:36.292Z,11.20
2023-01-28T16:41:03.538Z,9.85
2023-01-28T16:43:30.830Z,10.18
2023-01-28T16:45:58.043Z,11.18
2023-01-28T16:48:25.377Z,10.35
2023-01-28T16:50:52.848Z,10.50
2023-01-28T16:53:20.189Z,10.80
2023-01-28T16:55:47.369Z,11.45
2023-01-28T16:58:14.630Z,12.73
2023-01-28T17:00:42.285Z,12.75
2023-01-28T17:03:12.540Z,13.40
2023-01-28T17:05:39.783Z,11.10
2023-01-28T17:08:06.976Z,12.35
2023-01-28T17:10:34.282Z,13.02
2023-01-28T17:13:01.505Z,13.23
2023-01-28T17:15:28.738Z,16.73
2023-01-28T17:17:55.981Z,13.35
2023-01-28T17:20:24.546Z,15.27
2023-01-28T17:22:51.775Z,14.70
2023-01-28T17:25:19.013Z,16.70
2023-01-28T17:27:46.252Z,19.15
2023-01-28T17:30:13.785Z,15.85
2023-01-28T17:32:41.167Z,14.15
2023-01-28T17:35:08.514Z,14.38
2023-01-28T17:37:38.390Z,13.15
2023-01-28T17:40:05.702Z,11.80
2023-01-28T17:42:34.965Z,12.50
2023-01-28T17:45:03.243Z,13.20
2023-01-28T17:47:30.903Z,12.77
2023-01-28T17:49:58.182Z,12.63
2023-01-28T17:52:25.362Z,11.95
2023-01-28T17:54:52.688Z,12.32
2023-01-28T17:57:20.086Z,10.70
2023-01-28T17:59:47.393Z,13.85
2023-01-28T18:02:14.917Z,12.45
2023-01-28T18:04:42.384Z,13.50
2023-01-28T18:07:12.603Z,12.98
2023-01-28T18:09:39.946Z,11.68
2023-01-28T18:12:07.124Z,11.65
2023-01-28T18:14:34.386Z,12.35
2023-01-28T18:17:01.964Z,9.57
2023-01-28T18:19:29.283Z,11.75
2023-01-28T18:21:56.522Z,10.43
2023-01-28T18:24:24.343Z,10.20
2023-01-28T18:26:51.767Z,9.18
2023-01-28T18:29:20.925Z,9.05
2023-01-28T18:31:48.364Z,9.60
2023-01-28T18:34:15.579Z,11.02
2023-01-28T18:36:42.823Z,9.52
2023-01-28T18:39:10.050Z,9.98
2023-01-28T18:41:37.334Z,12.32
2023-01-28T18:44:04.509Z,12.65
2023-01-28T18:46:31.923Z,9.88
2023-01-28T18:48:59.130Z,10.60
2023-01-28T18:51:30.751Z,10.68
2023-01-28T18:53:58.220Z,11.85
2023-01-28T18:56:25.412Z,12.95
2023-01-28T18:58:52.628Z,12.27
2023-01-28T19:01:19.917Z,12.13
2023-01-28T19:03:47.211Z,12.68
2023-01-28T19:06:15.700Z,12.20
2023-01-28T19:08:43.072Z,12.98
2023-01-28T19:11:10.258Z,12.70
2023-01-28T19:13:37.463Z,12.27
2023-01-28T19:16:04.631Z,12.38
2023-01-28T19:18:31.985Z,10.15
2023-01-28T19:20:59.204Z,13.15
2023-01-28T19:23:26.455Z,12.75
2023-01-28T19:25:53.822Z,16.23
2023-01-28T19:28:21.152Z,17.70
2023-01-28T19:30:48.454Z,12.98
2023-01-28T19:33:15.687Z,12.85
2023-01-28T19:35:44.077Z,18.40
2023-01-28T19:38:11.300Z,22.15
2023-01-28T19:40:40.391Z,18.38
2023-01-28T19:43:07.585Z,14.68
2023-01-28T19:45:34.939Z,14.52
2023-01-28T19:48:02.201Z,14.90
2023-01-28T19:50:29.443Z,14.77
2023-01-28T19:52:56.708Z,17.42
2023-01-28T19:55:23.905Z,17.13
2023-01-28T19:57:51.157Z,16.73
2023-01-28T20:00:18.453Z,17.85
2023-01-28T20:02:45.745Z,14.77
2023-01-28T20:05:12.956Z,15.10
2023-01-28T20:07:40.247Z,14.32
2023-01-28T20:10:07.565Z,13.23
2023-01-28T20:12:34.783Z,15.10
2023-01-28T20:15:02.173Z,13.63
2023-01-28T20:17:29.508Z,15.73
2023-01-28T20:19:56.775Z,16.77
2023-01-28T20:22:24.031Z,15.02
2023-01-28T20:24:57.070Z,16.48
2023-01-28T20:27:24.686Z,15.23
2023-01-28T20:29:52.591Z,16.33
2023-01-28T20:32:20.691Z,14.32
2023-01-28T20:34:48.025Z,15.90
2023-01-28T20:37:15.331Z,14.40
2023-01-28T20:39:42.502Z,14.55
2023-01-28T20:42:10.848Z,13.77
2023-01-28T20:44:38.053Z,12.45
2023-01-28T20:47:05.416Z,13.38
2023-01-28T20:49:32.796Z,15.20
2023-01-28T20:52:00.062Z,14.65
2023-01-28T20:54:27.330Z,21.90
2023-01-28T20:56:54.630Z,14.98
2023-01-28T20:59:22.513Z,19.95
2023-01-28T21:01:49.818Z,24.05
2023-01-28T21:04:17.363Z,25.63
2023-01-28T21:06:44.789Z,15.65
2023-01-28T21:09:11.971Z,15.05
2023-01-28T21:11:39.226Z,45.55
2023-01-28T21:14:06.395Z,29.48
2023-01-28T21:16:33.680Z,13.07
2023-01-28T21:19:00.848Z,10.93
2023-01-28T21:21:28.007Z,11.02
2023-01-28T21:23:57.837Z,11.13
2023-01-28T21:26:25.402Z,8.23
2023-01-28T21:28:52.613Z,10.02
2023-01-28T21:31:19.865Z,8.23
2023-01-28T21:33:47.110Z,11.77
2023-01-28T21:36:14.374Z,8.55
2023-01-28T21:38:41.612Z,9.45
2023-01-28T21:41:08.867Z,8.88
2023-01-28T21:43:36.086Z,10.48
2023-01-28T21:46:03.440Z,10.00
2023-01-28T21:48:30.891Z,10.88
2023-01-28T21:51:17.036Z,10.48
2023-01-28T21:53:44.279Z,9.27
2023-01-28T21:56:11.556Z,11.02
2023-01-28T21:58:57.648Z,11.43
2023-01-28T22:01:25.097Z,10.40
2023-01-28T22:03:52.308Z,9.95
2023-01-28T22:06:19.641Z,11.30
2023-01-28T22:08:46.892Z,10.30
2023-01-28T22:11:14.093Z,11.32
2023-01-28T22:13:41.312Z,10.57
2023-01-28T22:16:08.595Z,11.13
2023-01-28T22:18:35.871Z,11.13
2023-01-28T22:21:03.194Z,11.85
2023-01-28T22:23:30.374Z,10.50
2023-01-28T22:25:57.701Z,11.50
2023-01-28T22:28:24.868Z,13.35
2023-01-28T22:30:52.230Z,11.68
2023-01-28T22:33:19.668Z,12.93
2023-01-28T22:35:47.004Z,12.18
2023-01-28T22:38:14.191Z,13.25
2023-01-28T22:40:41.443Z,13.90
2023-01-28T22:43:08.694Z,13.40
2023-01-28T22:45:35.999Z,13.10
2023-01-28T22:48:03.226Z,14.40
2023-01-28T22:50:30.464Z,13.27
2023-01-28T22:52:57.643Z,14.13
2023-01-28T22:55:24.897Z,14.32
2023-01-28T22:57:52.238Z,13.60
2023-01-28T23:00:19.598Z,15.07
2023-01-28T23:02:47.135Z,14.27
2023-01-28T23:05:14.411Z,13.40
2023-01-28T23:07:42.738Z,15.68
2023-01-28T23:10:09.978Z,14.18
2023-01-28T23:12:37.210Z,14.50
2023-01-28T23:15:23.197Z,14.57
2023-01-28T23:18:16.849Z,13.75
2023-01-28T23:21:02.906Z,12.18
2023-01-28T23:23:49.131Z,11.70
2023-01-28T23:26:16.370Z,10.90
2023-01-28T23:28:43.634Z,12.07
2023-01-28T23:31:10.880Z,12.23
2023-01-28T23:33:38.201Z,11.77
2023-01-28T23:36:05.402Z,13.20
2023-01-28T23:38:32.703Z,12.05
2023-01-28T23:40:59.875Z,13.05
2023-01-28T23:43:27.125Z,13.00
2023-01-28T23:45:54.411Z,12.75
2023-01-28T23:48:21.629Z,11.18
2023-01-28T23:50:48.763Z,13.25
2023-01-28T23:53:16.025Z,15.13
2023-01-28T23:55:43.200Z,15.30
2023-01-28T23:58:10.479Z,15.60
